Time;durP1;ratioP1;P1;durP2;ratioP2;P2;SDS_P1;SDS_P2;PMS_P1;PMS_P2;Temp;Humidity;BMP_temperature;BMP_pressure;BME280_temperature;BME280_humidity;BME280_pressure;Samples;Min_cycle;Max_cycle;Signal;HPM_P1;HPM_P2
2024/04/10 00:02:16;;;;;;;8.93;5.35;;;;;;;9.70;79.22;100164.03;5379911;26;20000;-79
2024/04/10 00:04:41;;;;;;;9.20;5.25;;;;;;;9.79;79.39;100138.81;5379520;26;19996;-79
2024/04/10 00:07:06;;;;;;;8.23;5.03;;;;;;;9.76;79.57;100147.22;5379192;26;20102;-79
2024/04/10 00:09:32;;;;;;;9.38;5.00;;;;;;;9.52;81.26;100157.56;5379807;26;20008;-79
2024/04/10 00:11:57;;;;;;;12.80;6.38;;;;;;;9.14;83.91;100150.25;5380214;26;20011;-78
2024/04/10 00:14:23;;;;;;;10.82;6.43;;;;;;;9.74;79.83;100142.09;5379987;26;20008;-79
2024/04/10 00:16:49;;;;;;;10.23;6.75;;;;;;;9.95;78.31;100154.31;5379876;26;20008;-78
2024/04/10 00:19:15;;;;;;;12.00;6.85;;;;;;;10.48;75.49;100152.38;5383125;26;20001;-79
2024/04/10 00:21:43;;;;;;;11.45;6.97;;;;;;;10.10;76.79;100156.69;5380122;26;20073;-78
2024/04/10 00:24:09;;;;;;;11.57;6.70;;;;;;;9.84;79.47;100162.94;5380357;26;20004;-78
2024/04/10 00:26:34;;;;;;;13.32;7.38;;;;;;;10.38;76.66;100153.69;5379826;26;20077;-79
2024/04/10 00:29:02;;;;;;;13.45;6.97;;;;;;;10.46;75.87;100155.25;5377823;26;20007;-78
2024/04/10 00:31:27;;;;;;;11.90;7.22;;;;;;;10.60;75.67;100150.63;5379874;26;20416;-78
2024/04/10 00:33:53;;;;;;;11.55;7.60;;;;;;;10.95;73.38;100158.16;5380121;26;20430;-78
2024/04/10 00:36:19;;;;;;;11.55;7.35;;;;;;;10.68;73.99;100157.56;5380130;26;20005;-78
2024/04/10 00:38:44;;;;;;;14.25;7.15;;;;;;;10.16;75.14;100160.34;5384150;26;20003;-78
2024/04/10 00:41:10;;;;;;;11.95;6.88;;;;;;;10.47;74.47;100140.09;5379784;26;20004;-78
2024/04/10 00:43:35;;;;;;;9.05;6.97;;;;;;;10.54;74.51;100151.50;5379472;26;20003;-79
2024/04/10 00:46:22;;;;;;;11.15;7.13;;;;;;;10.44;74.53;100135.97;5377749;26;20011;-78
2024/04/10 00:48:51;;;;;;;12.88;7.50;;;;;;;10.54;72.88;100140.84;5381399;26;20008;-78
2024/04/10 00:51:18;;;;;;;11.27;6.57;;;;;;;10.27;74.76;100147.13;5415629;26;19996;-78
2024/04/10 00:53:44;;;;;;;11.57;6.60;;;;;;;10.10;77.30;100158.53;5415160;26;20000;-78
2024/04/10 00:56:10;;;;;;;11.27;6.75;;;;;;;10.15;77.46;100156.03;5390581;26;20313;-79
2024/04/10 00:58:37;;;;;;;11.90;6.90;;;;;;;9.90;76.65;100124.81;5377624;26;20070;-78
2024/04/10 01:01:04;;;;;;;12.27;7.63;;;;;;;9.49;78.26;100128.66;5379698;26;20015;-78
2024/04/10 01:03:30;;;;;;;12.98;6.97;;;;;;;10.04;76.42;100147.69;5377901;26;20010;-78
2024/04/10 01:06:00;;;;;;;14.88;7.72;;;;;;;10.20;75.31;100150.91;5379944;26;20020;-78
2024/04/10 01:08:30;;;;;;;11.75;7.35;;;;;;;10.47;73.27;100140.09;5377949;26;20701;-79
2024/04/10 01:10:58;;;;;;;12.18;7.75;;;;;;;10.46;73.20;100139.25;5379438;26;20011;-78
2024/04/10 01:13:24;;;;;;;14.82;7.57;;;;;;;10.27;73.79;100125.81;5377871;26;20475;-78
2024/04/10 01:15:49;;;;;;;13.27;6.78;;;;;;;9.59;77.73;100136.22;5379350;26;20016;-78
2024/04/10 01:18:15;;;;;;;10.32;6.75;;;;;;;9.37;79.06;100146.31;5378609;26;20019;-78
2024/04/10 01:20:40;;;;;;;11.65;7.55;;;;;;;9.68;77.37;100142.13;5376460;26;19996;-78
2024/04/10 01:23:06;;;;;;;11.85;6.70;;;;;;;9.24;79.81;100152.50;5379544;26;20000;-78
2024/04/10 01:25:32;;;;;;;10.68;6.68;;;;;;;8.81;80.51;100131.69;5379169;26;20047;-78
2024/04/10 01:27:58;;;;;;;10.93;6.65;;;;;;;8.75;81.01;100121.88;5379124;26;20095;-78
2024/04/10 01:30:23;;;;;;;11.10;7.00;;;;;;;9.40;77.35;100146.72;5378018;26;20012;-78
2024/04/10 01:32:49;;;;;;;9.63;6.50;;;;;;;9.04;78.77;100147.19;5377055;26;20460;-77
2024/04/10 01:35:15;;;;;;;12.13;6.70;;;;;;;8.57;81.97;100136.56;5380673;26;20015;-77
2024/04/10 01:37:40;;;;;;;11.13;6.68;;;;;;;8.52;80.26;100132.88;5414614;26;19999;-77
2024/04/10 01:40:06;;;;;;;11.82;7.07;;;;;;;8.08;83.15;100135.03;5392154;26;20014;-77
2024/04/10 01:42:32;;;;;;;11.02;7.25;;;;;;;8.25;82.91;100148.75;5378819;26;20004;-78
2024/04/10 01:44:58;;;;;;;12.95;7.57;;;;;;;8.92;79.46;100154.16;5377460;26;20013;-77
2024/04/10 01:47:24;;;;;;;10.65;7.03;;;;;;;9.23;77.70;100129.56;5378706;26;20011;-78
2024/04/10 01:49:50;;;;;;;10.27;6.63;;;;;;;9.21;78.60;100144.91;5381718;26;20000;-77
2024/04/10 01:52:16;;;;;;;10.30;7.35;;;;;;;8.95;78.87;100137.78;5378866;26;20015;-78
2024/04/10 01:54:41;;;;;;;14.30;8.30;;;;;;;8.35;81.02;100106.69;5377085;26;20353;-78
2024/04/10 01:57:07;;;;;;;13.77;9.85;;;;;;;8.10;83.49;100113.59;5378938;26;20015;-77
2024/04/10 01:59:32;;;;;;;15.63;10.32;;;;;;;8.65;80.79;100130.25;5381735;26;20072;-78
2024/04/10 02:01:57;;;;;;;12.50;8.98;;;;;;;8.89;78.65;100118.16;5378685;26;20008;-78
2024/04/10 02:04:23;;;;;;;14.52;8.07;;;;;;;8.91;79.05;100131.25;5376911;26;20078;-78
2024/04/10 02:06:48;;;;;;;18.90;10.70;;;;;;;8.37;81.62;100101.97;5378731;26;20004;-78
2024/04/10 02:09:14;;;;;;;14.55;8.02;;;;;;;8.65;81.18;100111.63;5378226;26;19997;-78
2024/04/10 02:11:40;;;;;;;12.02;6.72;;;;;;;8.71;81.93;100094.88;5377035;26;20147;-78
2024/04/10 02:14:05;;;;;;;12.45;7.50;;;;;;;8.64;83.41;100125.94;5378250;26;20012;-77
2024/04/10 02:16:31;;;;;;;11.52;6.68;;;;;;;9.09;80.43;100112.78;5378245;26;20015;-78
2024/04/10 02:18:57;;;;;;;11.18;6.97;;;;;;;8.84;81.66;100121.44;5376841;26;20000;-78
2024/04/10 02:21:23;;;;;;;9.77;5.93;;;;;;;8.94;79.62;100114.88;5378069;26;20000;-77
2024/04/10 02:23:49;;;;;;;8.23;5.82;;;;;;;9.00;80.10;100124.69;5378200;26;20001;-77
2024/04/10 02:26:15;;;;;;;7.25;5.30;;;;;;;8.84;80.12;100132.06;5378382;26;20337;-78
2024/04/10 02:28:41;;;;;;;9.50;6.25;;;;;;;8.20;83.46;100111.38;5376755;26;20433;-78
2024/04/10 02:31:07;;;;;;;11.48;7.88;;;;;;;7.85;82.27;100127.44;5379935;26;20082;-79
2024/04/10 02:33:38;;;;;;;15.50;8.93;;;;;;;7.79;82.11;100117.59;5381770;26;20337;-78
2024/04/10 02:36:08;;;;;;;13.60;9.30;;;;;;;8.21;80.48;100110.34;5381774;26;20004;-78
2024/04/10 02:38:35;;;;;;;15.50;9.85;;;;;;;8.50;80.15;100151.72;5381996;26;20008;-78
2024/04/10 02:41:01;;;;;;;17.15;11.20;;;;;;;8.65;78.97;100143.53;5381408;26;20032;-78
2024/04/10 02:43:26;;;;;;;12.70;8.57;;;;;;;7.42;85.49;100133.78;5381501;26;20000;-77
2024/04/10 02:45:59;;;;;;;14.73;9.02;;;;;;;7.39;87.36;100125.38;5381630;26;20000;-77
2024/04/10 02:48:25;;;;;;;10.50;7.55;;;;;;;7.36;87.76;100139.06;5379528;26;20005;-78
2024/04/10 02:50:51;;;;;;;12.05;6.75;;;;;;;7.74;82.79;100112.88;5384433;26;19996;-77
2024/04/10 02:53:18;;;;;;;9.70;6.60;;;;;;;8.21;82.08;100151.03;5381241;26;20000;-77
2024/04/10 02:55:44;;;;;;;9.75;6.63;;;;;;;8.28;81.24;100144.91;5380959;26;20008;-78
2024/04/10 02:58:11;;;;;;;9.32;6.13;;;;;;;7.97;82.70;100155.03;5380814;26;20004;-77
2024/04/10 03:00:50;;;;;;;8.90;6.00;;;;;;;8.18;81.51;100153.25;5385720;26;20007;-77
2024/04/10 03:03:16;;;;;;;10.82;7.82;;;;;;;8.16;82.25;100150.81;5416492;26;20069;-78
2024/04/10 03:05:44;;;;;;;9.68;7.10;;;;;;;8.44;82.26;100158.66;5416956;26;20015;-77
2024/04/10 03:08:12;;;;;;;14.40;7.20;;;;;;;8.23;83.39;100161.44;5387282;26;20518;-77
2024/04/10 03:10:38;;;;;;;9.35;6.35;;;;;;;8.35;83.03;100149.19;5386509;26;20008;-78
2024/04/10 03:13:04;;;;;;;11.95;5.97;;;;;;;8.51;81.65;100145.38;5415080;26;20085;-78
2024/04/10 03:15:30;;;;;;;9.07;5.72;;;;;;;8.38;81.16;100116.91;5414945;26;20011;-78
2024/04/10 03:17:56;;;;;;;8.32;5.07;;;;;;;8.49;80.62;100128.81;5392591;26;20000;-78
2024/04/10 03:20:21;;;;;;;11.68;5.80;;;;;;;8.42;80.42;100134.13;5380379;26;20012;-78
2024/04/10 03:22:47;;;;;;;12.50;5.55;;;;;;;8.57;80.68;100146.41;5394332;26;20029;-78
2024/04/10 03:25:13;;;;;;;8.15;5.63;;;;;;;8.01;84.63;100137.69;5380516;26;20457;-78
2024/04/10 03:27:40;;;;;;;10.75;5.20;;;;;;;7.73;87.43;100139.63;5378823;26;20012;-78
2024/04/10 03:30:07;;;;;;;13.02;6.05;;;;;;;8.32;83.17;100149.59;5380284;26;20008;-78
2024/04/10 03:32:32;;;;;;;11.57;5.25;;;;;;;8.35;83.11;100154.50;5408179;26;20459;-77
2024/04/10 03:34:58;;;;;;;9.77;5.55;;;;;;;8.16;83.76;100149.97;5416103;26;20000;-78
2024/04/10 03:37:24;;;;;;;9.07;5.65;;;;;;;7.82;85.78;100141.91;5405492;26;20092;-78
2024/04/10 03:39:50;;;;;;;13.00;6.30;;;;;;;7.72;85.95;100133.50;5380479;26;20004;-78
2024/04/10 03:42:16;;;;;;;12.30;5.40;;;;;;;8.04;85.06;100169.16;5400421;26;20004;-78
2024/04/10 03:44:41;;;;;;;15.88;6.35;;;;;;;8.13;84.72;100166.31;5416023;26;20010;-78
2024/04/10 03:47:07;;;;;;;13.02;6.40;;;;;;;8.15;83.21;100159.81;5409341;26;20035;-78
2024/04/10 03:49:32;;;;;;;11.68;6.18;;;;;;;8.20;81.51;100172.47;5380680;26;20039;-78
2024/04/10 03:51:58;;;;;;;12.30;6.07;;;;;;;7.63;83.91;100155.94;5393680;26;19999;-78
2024/04/10 03:54:23;;;;;;;16.75;7.75;;;;;;;8.04;81.22;100155.88;5415866;26;20023;-77
2024/04/10 03:56:49;;;;;;;10.38;5.70;;;;;;;8.09;81.08;100181.00;5413842;26;20069;-78
2024/04/10 03:59:14;;;;;;;11.15;5.90;;;;;;;7.81;82.65;100155.41;5381676;26;20004;-78
2024/04/10 04:01:40;;;;;;;13.13;6.57;;;;;;;6.90;87.84;100164.25;5387069;26;20072;-78
2024/04/10 04:04:06;;;;;;;11.85;6.43;;;;;;;6.74;88.08;100162.72;5416146;26;20007;-77
2024/04/10 04:06:31;;;;;;;11.93;7.03;;;;;;;6.42;87.43;100170.16;5415878;26;20094;-77
2024/04/10 04:08:57;;;;;;;9.98;6.85;;;;;;;6.76;88.52;100166.00;5387993;26;20012;-78
2024/04/10 04:11:22;;;;;;;9.98;7.35;;;;;;;6.85;90.65;100179.91;5380945;26;20000;-78
2024/04/10 04:13:48;;;;;;;11.18;7.10;;;;;;;6.57;94.22;100178.03;5414188;26;20007;-78
2024/04/10 04:16:14;;;;;;;12.52;7.25;;;;;;;6.87;94.10;100204.41;5415526;26;20000;-78
2024/04/10 04:18:40;;;;;;;9.27;6.80;;;;;;;6.55;97.36;100174.75;5392404;26;20089;-77
2024/04/10 04:21:05;;;;;;;10.63;6.90;;;;;;;7.13;94.92;100214.41;5380085;26;20011;-77
2024/04/10 04:23:31;;;;;;;12.05;6.82;;;;;;;7.27;91.84;100225.91;5380308;26;20011;-77
2024/04/10 04:25:56;;;;;;;12.90;7.65;;;;;;;6.94;93.57;100215.06;5379896;26;20004;-77
2024/04/10 04:28:22;;;;;;;15.32;8.38;;;;;;;7.60;88.37;100209.38;5380263;26;20000;-77
2024/04/10 04:30:50;;;;;;;15.27;11.35;;;;;;;7.76;87.75;100214.38;5377798;26;20004;-78
2024/04/10 04:33:18;;;;;;;12.68;9.40;;;;;;;7.92;86.60;100228.34;5383519;26;20012;-78
2024/04/10 04:35:43;;;;;;;16.15;9.32;;;;;;;7.73;85.61;100203.34;5379482;26;20139;-77
2024/04/10 04:38:09;;;;;;;12.57;7.10;;;;;;;7.71;87.17;100211.50;5379930;26;20035;-77
2024/04/10 04:40:34;;;;;;;13.13;7.45;;;;;;;7.86;87.34;100219.31;5380844;26;20015;-77
2024/04/10 04:43:07;;;;;;;15.63;8.15;;;;;;;7.94;87.47;100221.81;5392417;26;20008;-76
2024/04/10 04:45:33;;;;;;;20.77;9.90;;;;;;;8.34;83.71;100232.59;5378040;26;20708;-78
2024/04/10 04:47:59;;;;;;;18.15;9.07;;;;;;;8.36;84.80;100208.50;5377813;26;20000;-77
2024/04/10 04:50:24;;;;;;;14.05;7.88;;;;;;;8.60;87.17;100225.72;5379814;26;20481;-79
2024/04/10 04:52:50;;;;;;;17.05;7.43;;;;;;;8.67;84.70;100215.94;5379180;26;20043;-77
2024/04/10 04:55:15;;;;;;;12.40;7.25;;;;;;;8.78;84.08;100228.63;5379699;26;20000;-78
2024/04/10 04:57:41;;;;;;;21.85;10.00;;;;;;;8.86;84.73;100219.63;5379404;26;20012;-79
2024/04/10 05:00:14;;;;;;;18.05;9.52;;;;;;;9.09;83.75;100213.91;5379274;26;20019;-79
2024/04/10 05:02:40;;;;;;;21.98;9.57;;;;;;;9.28;82.92;100206.13;5378890;26;20000;-79
2024/04/10 05:05:11;;;;;;;15.65;9.02;;;;;;;9.18;82.17;100201.22;5379692;26;20000;-79
2024/04/10 05:07:37;;;;;;;15.55;8.70;;;;;;;9.00;84.99;100228.44;5377736;26;20012;-78
2024/04/10 05:10:03;;;;;;;20.70;9.82;;;;;;;9.60;82.55;100241.69;5379217;26;20349;-79
2024/04/10 05:12:28;;;;;;;19.05;9.15;;;;;;;9.46;83.02;100224.94;5379042;26;20735;-78
2024/04/10 05:14:54;;;;;;;15.55;7.32;;;;;;;9.83;84.30;100243.91;5379017;26;20004;-77
2024/04/10 05:17:20;;;;;;;14.32;6.97;;;;;;;9.95;82.88;100212.91;5377498;26;20000;-78
2024/04/10 05:19:45;;;;;;;14.98;7.15;;;;;;;10.40;82.01;100242.25;5377197;26;20007;-78
2024/04/10 05:22:11;;;;;;;13.18;7.22;;;;;;;10.57;81.84;100253.22;5378690;26;20004;-79
2024/04/10 05:24:36;;;;;;;10.10;6.03;;;;;;;10.66;79.00;100245.78;5378864;26;20004;-78
2024/04/10 05:27:05;;;;;;;8.90;5.45;;;;;;;10.83;75.97;100252.25;5377621;26;20082;-79
2024/04/10 05:29:31;;;;;;;8.77;5.05;;;;;;;10.71;75.65;100234.50;5379295;26;20004;-79
2024/04/10 05:31:58;;;;;;;8.05;5.25;;;;;;;11.19;73.72;100255.25;5378886;26;20000;-79
2024/04/10 05:34:23;;;;;;;10.63;6.40;;;;;;;11.16;75.38;100259.19;5379324;26;20018;-79
2024/04/10 05:36:49;;;;;;;12.77;6.80;;;;;;;11.08;76.04;100248.78;5377521;26;20000;-79
2024/04/10 05:39:33;;;;;;;7.57;5.05;;;;;;;11.29;75.65;100244.09;5379358;26;20018;-78
2024/04/10 05:42:05;;;;;;;7.00;4.70;;;;;;;11.39;76.55;100245.22;5376996;26;20035;-78
2024/04/10 05:44:30;;;;;;;7.55;4.60;;;;;;;11.70;75.57;100256.03;5379315;26;20012;-78
2024/04/10 05:46:55;;;;;;;9.13;4.70;;;;;;;11.90;76.30;100254.00;5378833;26;20410;-78
2024/04/10 05:49:21;;;;;;;8.05;5.05;;;;;;;11.87;76.81;100259.75;5379034;26;20000;-79
2024/04/10 05:51:46;;;;;;;7.93;4.90;;;;;;;11.81;78.11;100240.09;5378515;26;19996;-78
2024/04/10 05:54:12;;;;;;;8.60;5.50;;;;;;;12.11;77.19;100230.50;5383392;26;20012;-79
2024/04/10 05:56:37;;;;;;;8.27;5.30;;;;;;;12.58;75.13;100236.06;5378460;26;20007;-78
2024/04/10 05:59:02;;;;;;;9.18;4.65;;;;;;;12.08;76.96;100212.28;5376847;26;20037;-79
2024/04/10 06:01:28;;;;;;;10.32;4.90;;;;;;;12.58;76.52;100241.41;5376859;26;20446;-79
2024/04/10 06:03:53;;;;;;;6.88;4.40;;;;;;;12.54;76.63;100240.22;5378240;26;20015;-79
2024/04/10 06:06:19;;;;;;;7.18;4.35;;;;;;;12.68;77.75;100239.00;5376143;26;20059;-79
2024/04/10 06:08:44;;;;;;;6.65;4.70;;;;;;;12.93;76.84;100259.41;5378665;26;20000;-79
2024/04/10 06:11:10;;;;;;;6.45;4.38;;;;;;;12.58;75.57;100252.91;5378791;26;20078;-79
2024/04/10 06:13:36;;;;;;;6.25;4.32;;;;;;;13.07;77.14;100260.84;5378356;26;20317;-79
2024/04/10 06:16:03;;;;;;;6.72;4.38;;;;;;;13.05;72.59;100239.66;5376671;26;20452;-79
2024/04/10 06:18:29;;;;;;;8.38;4.28;;;;;;;13.48;71.94;100267.19;5378209;26;20004;-79
2024/04/10 06:20:57;;;;;;;8.70;4.25;;;;;;;13.41;72.65;100282.59;5378499;26;20004;-80
2024/04/10 06:23:24;;;;;;;7.60;4.50;;;;;;;13.52;69.98;100268.34;5377656;26;20009;-79
2024/04/10 06:25:52;;;;;;;6.35;4.07;;;;;;;13.64;69.26;100289.81;5378072;26;20008;-79
2024/04/10 06:28:18;;;;;;;;;;;;;;;13.55;68.92;100299.25;5382224;26;20000;-79
2024/04/10 06:30:43;;;;;;;8.55;4.40;;;;;;;13.65;69.84;100278.03;5378310;26;19931;-79
2024/04/10 06:33:11;;;;;;;5.57;4.20;;;;;;;13.77;67.88;100286.06;5379868;26;20717;-79
2024/04/10 06:35:36;;;;;;;9.50;4.40;;;;;;;14.15;68.04;100287.41;5377765;26;20036;-79
2024/04/10 06:38:02;;;;;;;7.10;4.70;;;;;;;14.49;65.23;100272.25;5377470;26;20015;-79
2024/04/10 06:40:27;;;;;;;5.95;4.05;;;;;;;14.24;64.39;100281.44;5377153;26;20344;-79
2024/04/10 06:42:52;;;;;;;5.53;3.63;;;;;;;14.24;65.13;100291.34;5377908;26;20000;-79
2024/04/10 06:45:18;;;;;;;7.75;3.85;;;;;;;14.72;63.30;100271.38;5376033;26;20012;-79
2024/04/10 06:47:43;;;;;;;9.45;4.38;;;;;;;15.09;64.24;100289.72;5377928;26;20001;-79
2024/04/10 06:50:09;;;;;;;6.47;3.78;;;;;;;15.14;58.58;100280.94;5378084;26;20445;-79
2024/04/10 06:52:35;;;;;;;6.90;3.63;;;;;;;15.11;59.73;100276.06;5377483;26;20076;-79
2024/04/10 06:55:02;;;;;;;5.68;3.55;;;;;;;15.27;59.59;100281.41;5375944;26;20032;-79
2024/04/10 06:57:27;;;;;;;5.72;4.00;;;;;;;15.67;59.32;100283.09;5377476;26;20008;-79
2024/04/10 06:59:53;;;;;;;8.73;3.97;;;;;;;15.63;60.45;100281.13;5377777;26;20000;-79
2024/04/10 07:02:18;;;;;;;5.93;3.67;;;;;;;16.04;56.58;100290.63;5377912;26;20018;-79
2024/04/10 07:04:46;;;;;;;7.32;3.45;;;;;;;16.30;61.09;100272.09;5377507;26;20044;-80
2024/04/10 07:07:12;;;;;;;9.23;4.30;;;;;;;16.22;58.89;100285.97;5375695;26;20000;-78
2024/04/10 07:09:37;;;;;;;9.32;3.70;;;;;;;16.31;57.98;100281.00;5377679;26;20001;-79
2024/04/10 07:12:03;;;;;;;6.95;3.58;;;;;;;16.20;55.12;100296.19;5377551;26;20016;-79
2024/04/10 07:14:32;;;;;;;6.72;3.80;;;;;;;16.49;56.85;100294.13;5376920;26;20403;-79
2024/04/10 07:16:58;;;;;;;7.82;3.78;;;;;;;16.37;55.16;100291.56;5379438;26;20012;-78
2024/04/10 07:19:23;;;;;;;6.65;3.47;;;;;;;16.68;55.72;100289.19;5381068;26;20399;-79
2024/04/10 07:21:49;;;;;;;6.63;3.90;;;;;;;17.07;54.75;100289.84;5381311;26;20011;-80
2024/04/10 07:24:14;;;;;;;8.43;3.83;;;;;;;17.32;53.85;100290.31;5379136;26;20071;-79
2024/04/10 07:26:40;;;;;;;8.75;4.95;;;;;;;17.40;53.18;100304.13;5379588;26;20361;-79
2024/04/10 07:29:05;;;;;;;9.65;4.80;;;;;;;17.63;53.09;100302.13;5381041;26;20077;-79
2024/04/10 07:31:34;;;;;;;7.07;3.97;;;;;;;17.70;50.93;100280.34;5409302;26;19995;-79
2024/04/10 07:34:01;;;;;;;6.57;3.70;;;;;;;17.84;49.72;100295.03;5402245;26;20020;-79
2024/04/10 07:36:26;;;;;;;7.57;3.60;;;;;;;17.94;49.07;100292.38;5381894;26;20445;-78
2024/04/10 07:38:56;;;;;;;5.57;3.70;;;;;;;17.70;51.51;100274.97;5381946;26;20011;-79
2024/04/10 07:41:22;;;;;;;6.15;3.60;;;;;;;18.06;51.31;100298.38;5384193;26;20004;-78
2024/04/10 07:43:49;;;;;;;6.00;3.75;;;;;;;18.51;51.19;100292.59;5386652;26;20097;-79
2024/04/10 07:46:16;;;;;;;8.52;4.22;;;;;;;18.66;51.95;100298.03;5386178;26;20001;-79
2024/04/10 07:48:43;;;;;;;5.68;3.58;;;;;;;18.75;50.30;100301.81;5388978;26;20010;-79
2024/04/10 07:51:18;;;;;;;4.97;3.42;;;;;;;19.04;48.53;100298.66;5387036;26;20036;-78
2024/04/10 07:53:43;;;;;;;6.60;3.55;;;;;;;19.02;47.78;100271.06;5393854;26;20003;-79
2024/04/10 07:56:12;;;;;;;6.53;2.80;;;;;;;19.30;44.91;100288.66;5391766;26;20008;-79
2024/04/10 07:58:38;;;;;;;5.90;3.92;;;;;;;19.37;45.23;100274.84;5387958;26;20329;-79
2024/04/10 08:01:04;;;;;;;6.00;3.42;;;;;;;19.65;44.01;100290.50;5389559;26;20438;-79
2024/04/10 08:03:30;;;;;;;10.75;3.45;;;;;;;19.68;42.22;100291.84;5390659;26;20000;-78
2024/04/10 08:05:57;;;;;;;6.32;3.13;;;;;;;19.75;42.54;100289.69;5389894;26;20122;-79
2024/04/10 08:08:23;;;;;;;6.68;3.00;;;;;;;19.74;42.60;100282.69;5389844;26;20007;-78
2024/04/10 08:11:15;;;;;;;9.52;3.45;;;;;;;19.90;42.37;100282.63;5390410;26;20004;-78
2024/04/10 08:13:41;;;;;;;6.30;3.13;;;;;;;19.81;43.48;100268.84;5391035;26;20032;-78
2024/04/10 08:16:10;;;;;;;8.48;2.67;;;;;;;20.23;40.92;100275.75;5390901;26;19996;-78
2024/04/10 08:18:39;;;;;;;5.18;2.72;;;;;;;20.59;39.27;100270.13;5390838;26;20000;-77
2024/04/10 08:21:10;;;;;;;4.53;2.40;;;;;;;20.86;37.69;100272.38;5391435;26;20419;-83
2024/04/10 08:23:37;;;;;;;6.35;2.70;;;;;;;20.48;40.95;100272.88;5389511;26;20050;-77
2024/04/10 08:26:30;;;;;;;6.47;2.25;;;;;;;21.04;39.74;100281.75;5390551;26;20011;-78
2024/04/10 08:28:55;;;;;;;6.20;2.70;;;;;;;21.37;37.16;100266.56;5385828;26;20008;-78
2024/04/10 08:31:24;;;;;;;5.75;2.55;;;;;;;21.61;36.53;100255.75;5387932;26;20344;-78
2024/04/10 08:33:53;;;;;;;6.15;2.60;;;;;;;21.81;36.99;100281.06;5388742;26;20015;-78
2024/04/10 08:36:20;;;;;;;4.85;2.40;;;;;;;21.83;34.32;100278.88;5385695;26;20000;-78
2024/04/10 08:38:46;;;;;;;6.32;2.10;;;;;;;21.79;35.15;100281.34;5387894;26;20087;-78
2024/04/10 08:41:16;;;;;;;4.20;2.30;;;;;;;21.79;36.14;100266.97;5389032;26;20015;-78
2024/04/10 08:43:43;;;;;;;5.55;2.60;;;;;;;21.45;35.64;100282.25;5386688;26;20008;-78
2024/04/10 08:46:09;;;;;;;4.38;2.25;;;;;;;21.45;36.80;100273.28;5389393;26;20000;-79
2024/04/10 08:48:37;;;;;;;3.85;2.20;;;;;;;21.97;37.79;100265.41;5382740;26;20004;-78
2024/04/10 08:51:08;;;;;;;6.63;2.33;;;;;;;22.27;34.24;100266.94;5381700;26;20011;-78
2024/04/10 08:53:36;;;;;;;6.05;2.40;;;;;;;22.72;36.36;100267.41;5381384;26;20004;-78
2024/04/10 08:56:02;;;;;;;4.35;2.10;;;;;;;22.50;33.47;100269.91;5380839;26;20428;-79
2024/04/10 08:58:27;;;;;;;5.32;2.10;;;;;;;22.82;33.12;100250.94;5381705;26;20015;-79
2024/04/10 09:00:53;;;;;;;4.38;2.03;;;;;;;23.04;32.86;100276.72;5381063;26;20004;-81
2024/04/10 09:03:18;;;;;;;4.25;1.83;;;;;;;23.14;30.26;100273.81;5381079;26;20077;-79
2024/04/10 09:05:44;;;;;;;5.15;2.25;;;;;;;23.39;34.09;100258.16;5380278;26;20530;-80
2024/04/10 09:08:09;;;;;;;4.55;2.78;;;;;;;23.82;32.93;100260.66;5380623;26;20004;-79
2024/04/10 09:10:35;;;;;;;6.57;2.17;;;;;;;23.43;32.32;100249.09;5380411;26;20004;-79
2024/04/10 09:13:11;;;;;;;4.45;2.35;;;;;;;23.80;30.80;100258.25;5380501;26;20536;-79
2024/04/10 09:15:37;;;;;;;4.45;2.15;;;;;;;23.90;30.54;100262.66;5384229;26;20368;-80
2024/04/10 09:18:03;;;;;;;8.00;3.63;;;;;;;23.94;31.36;100246.53;5379956;26;20461;-80
2024/04/10 09:20:29;;;;;;;6.47;2.42;;;;;;;24.13;30.33;100255.41;5379952;26;20004;-79
2024/04/10 09:23:04;;;;;;;3.42;2.08;;;;;;;24.34;30.66;100255.75;5378000;26;20019;-79
2024/04/10 09:25:30;;;;;;;3.72;2.10;;;;;;;24.58;29.97;100243.78;5379313;26;19996;-79
2024/04/10 09:28:00;;;;;;;4.50;1.92;;;;;;;24.52;29.61;100264.94;5379676;26;20008;-80
2024/04/10 09:30:26;;;;;;;4.97;2.17;;;;;;;24.91;31.30;100257.19;5379845;26;20047;-80
2024/04/10 09:32:53;;;;;;;4.10;2.10;;;;;;;24.85;29.69;100243.69;5378083;26;20004;-79
2024/04/10 09:35:20;;;;;;;5.70;2.42;;;;;;;24.62;31.90;100240.16;5379496;26;20001;-80
2024/04/10 09:37:49;;;;;;;5.20;2.03;;;;;;;24.38;32.90;100240.41;5378043;26;20019;-80
2024/04/10 09:40:15;;;;;;;3.45;2.08;;;;;;;24.27;32.41;100239.00;5378012;26;20055;-80
2024/04/10 09:42:46;;;;;;;3.63;2.08;;;;;;;24.38;33.54;100240.41;5377433;26;20004;-80
2024/04/10 09:45:16;;;;;;;5.45;2.10;;;;;;;24.35;32.20;100229.28;5379091;26;20353;-80
2024/04/10 09:47:43;;;;;;;5.25;2.00;;;;;;;24.63;31.73;100240.94;5379330;26;20482;-80
2024/04/10 09:50:13;;;;;;;;;;;;;;;24.92;31.00;100236.97;5378457;26;20016;-79
2024/04/10 09:52:40;;;;;;;4.72;2.40;;;;;;;24.94;31.17;100227.38;5379038;26;19932;-79
2024/04/10 09:55:07;;;;;;;4.63;2.00;;;;;;;25.05;31.42;100219.75;5379051;26;20004;-80
2024/04/10 09:57:33;;;;;;;3.53;2.35;;;;;;;25.22;29.38;100219.84;5378525;26;20072;-80
2024/04/10 10:00:01;;;;;;;12.23;4.53;;;;;;;25.32;31.20;100210.59;5379065;26;20000;-79
2024/04/10 10:04:09;;;;;;;6.68;3.13;;;;;;;24.86;30.54;100196.19;5542235;25;20413;-79
2024/04/10 10:06:35;;;;;;;7.95;2.20;;;;;;;25.22;30.89;100203.47;5516543;25;20426;-80
2024/04/10 10:09:00;;;;;;;7.13;3.25;;;;;;;25.35;31.23;100220.06;5508541;25;20002;-79
2024/04/10 10:11:27;;;;;;;9.20;3.65;;;;;;;25.33;31.81;100195.03;5525431;25;20013;-80
2024/04/10 10:14:03;;;;;;;6.00;2.67;;;;;;;25.23;30.93;100216.03;5525424;25;20012;-80
2024/04/10 10:16:33;;;;;;;5.85;2.58;;;;;;;25.55;31.81;100219.50;5523004;25;20025;-79
2024/04/10 10:19:00;;;;;;;4.35;2.60;;;;;;;25.80;29.32;100214.44;5542551;25;20160;-79
2024/04/10 10:21:27;;;;;;;7.93;2.78;;;;;;;26.24;29.32;100209.91;5542571;25;20011;-79
2024/04/10 10:24:04;;;;;;;5.65;2.30;;;;;;;26.13;30.08;100203.94;5509726;25;20002;-80
2024/04/10 10:26:30;;;;;;;6.75;2.33;;;;;;;25.92;29.89;100209.22;5504903;25;20078;-79
2024/04/10 10:29:08;;;;;;;6.65;1.92;;;;;;;25.81;29.85;100194.22;5505564;26;20013;-79
2024/04/10 10:31:34;;;;;;;8.20;2.03;;;;;;;25.54;30.47;100193.34;5503568;26;20002;-78
2024/04/10 10:34:14;;;;;;;5.45;1.88;;;;;;;25.40;30.80;100209.84;5505081;25;20042;-79
2024/04/10 10:36:39;;;;;;;5.63;2.15;;;;;;;25.90;31.08;100199.72;5504551;25;20408;-79
2024/04/10 10:39:10;;;;;;;6.70;2.05;;;;;;;25.45;29.00;100167.94;5503179;26;20435;-79
2024/04/10 10:41:36;;;;;;;5.07;2.03;;;;;;;25.69;29.85;100199.50;5505428;25;20006;-79
2024/04/10 10:44:01;;;;;;;3.60;1.85;;;;;;;26.36;27.42;100212.00;5504842;25;20012;-79
2024/04/10 10:46:27;;;;;;;4.15;1.88;;;;;;;26.46;27.87;100190.59;5502300;26;20002;-79
2024/04/10 10:48:53;;;;;;;3.65;1.98;;;;;;;26.53;28.49;100190.09;5504708;25;20429;-79
2024/04/10 10:51:19;;;;;;;2.60;2.00;;;;;;;26.91;27.88;100188.63;5504824;25;20009;-79
2024/04/10 10:53:47;;;;;;;4.93;1.92;;;;;;;26.62;28.91;100176.44;5504669;25;20013;-79
2024/04/10 10:56:22;;;;;;;3.88;1.60;;;;;;;27.28;26.61;100202.72;5504499;25;20071;-78
2024/04/10 10:58:48;;;;;;;5.40;1.65;;;;;;;26.74;27.08;100201.22;5504907;25;19998;-79
2024/04/10 11:01:14;;;;;;;3.75;1.60;;;;;;;27.12;27.10;100197.75;5504397;25;19998;-79
2024/04/10 11:03:39;;;;;;;3.45;1.60;;;;;;;27.35;26.27;100205.75;5503886;25;20014;-79
2024/04/10 11:06:11;;;;;;;5.38;1.73;;;;;;;27.77;25.62;100203.16;5504183;25;20008;-79
2024/04/10 11:08:37;;;;;;;4.00;1.67;;;;;;;27.84;25.38;100208.88;5485213;25;19997;-78
2024/04/10 11:11:04;;;;;;;4.13;1.60;;;;;;;27.65;25.46;100207.38;5524203;25;20406;-79
2024/04/10 11:13:29;;;;;;;3.50;1.70;;;;;;;27.58;25.81;100190.69;5518342;25;19994;-79
2024/04/10 11:15:57;;;;;;;2.67;1.40;;;;;;;27.97;24.96;100191.44;5504899;25;20037;-79
2024/04/10 11:18:24;;;;;;;3.80;1.70;;;;;;;27.19;25.99;100203.50;5503726;26;20338;-79
2024/04/10 11:20:51;;;;;;;5.13;2.00;;;;;;;27.81;25.51;100199.41;5512282;26;20008;-79
2024/04/10 11:23:17;;;;;;;5.30;2.20;;;;;;;28.49;24.01;100186.66;5493672;26;19994;-79
2024/04/10 11:25:42;;;;;;;5.43;2.00;;;;;;;28.90;24.34;100196.78;5488583;26;20572;-80